createdAt,value
2022-12-04T00:01:29.331Z,1.21
2022-12-04T00:04:00.360Z,1.22
2022-12-04T00:06:29.002Z,1.21
2022-12-04T00:08:56.704Z,1.21
2022-12-04T00:11:29.132Z,1.21
2022-12-04T00:14:02.955Z,1.21
2022-12-04T00:16:29.581Z,1.22
2022-12-04T00:18:58.048Z,1.21
2022-12-04T00:21:26.787Z,1.21
2022-12-04T00:23:54.769Z,1.19
2022-12-04T00:26:26.121Z,1.20
2022-12-04T00:28:55.695Z,1.22
2022-12-04T00:31:27.212Z,1.25
2022-12-04T00:33:55.160Z,1.26
2022-12-04T00:36:25.411Z,1.28
2022-12-04T00:38:54.310Z,1.29
2022-12-04T00:41:25.223Z,1.30
2022-12-04T00:43:53.022Z,1.30
2022-12-04T00:46:21.470Z,1.30
2022-12-04T00:48:49.947Z,1.29
2022-12-04T00:51:22.175Z,1.30
2022-12-04T00:53:51.324Z,1.30
2022-12-04T00:56:26.028Z,1.31
2022-12-04T00:58:57.362Z,1.32
2022-12-04T01:01:26.120Z,1.33
2022-12-04T01:03:55.503Z,1.34
2022-12-04T01:06:31.098Z,1.32
2022-12-04T01:08:59.383Z,1.32
2022-12-04T01:11:29.350Z,1.32
2022-12-04T01:13:58.706Z,1.32
2022-12-04T01:16:31.333Z,1.33
2022-12-04T01:18:59.154Z,1.34
2022-12-04T01:21:27.022Z,1.36
2022-12-04T01:23:55.097Z,1.37
2022-12-04T01:26:22.910Z,1.39
2022-12-04T01:28:50.805Z,1.38
2022-12-04T01:31:21.109Z,1.39
2022-12-04T01:33:49.723Z,1.37
2022-12-04T01:36:24.775Z,1.37
2022-12-04T01:38:53.238Z,1.38
2022-12-04T01:41:25.341Z,1.37
2022-12-04T01:44:19.192Z,1.37
2022-12-04T01:46:54.328Z,1.37
2022-12-04T01:49:45.241Z,1.37
2022-12-04T01:52:22.374Z,1.37
2022-12-04T01:54:58.661Z,1.39
2022-12-04T01:57:30.743Z,1.39
2022-12-04T02:00:03.550Z,1.40
2022-12-04T02:02:35.941Z,1.42
2022-12-04T02:05:09.228Z,1.43
2022-12-04T02:07:39.123Z,1.43
2022-12-04T02:10:09.665Z,1.45
2022-12-04T02:13:05.277Z,1.47
2022-12-04T02:15:56.668Z,1.45
2022-12-04T02:18:41.707Z,1.45
2022-12-04T02:21:23.655Z,1.40
2022-12-04T02:24:27.239Z,1.39
2022-12-04T02:27:09.164Z,1.38
2022-12-04T02:29:47.980Z,1.38
2022-12-04T02:32:27.013Z,1.38
2022-12-04T02:35:05.917Z,1.37
2022-12-04T02:37:38.680Z,1.33
2022-12-04T02:40:12.078Z,1.26
2022-12-04T02:42:51.166Z,1.24
2022-12-04T02:45:25.821Z,1.19
2022-12-04T02:47:55.236Z,1.14
2022-12-04T02:50:24.984Z,1.13
2022-12-04T02:53:20.966Z,1.12
2022-12-04T02:55:56.703Z,1.12
2022-12-04T02:58:32.113Z,1.14
2022-12-04T03:01:01.848Z,1.14
2022-12-04T03:03:32.815Z,1.14
2022-12-04T03:06:10.641Z,1.14
2022-12-04T03:08:50.948Z,1.12
2022-12-04T03:11:19.320Z,1.11
2022-12-04T03:13:55.339Z,1.04
2022-12-04T03:16:31.588Z,0.99
2022-12-04T03:19:16.714Z,0.97
2022-12-04T03:21:52.437Z,0.96
2022-12-04T03:24:25.060Z,0.94
2022-12-04T03:27:16.082Z,0.92
2022-12-04T03:30:01.128Z,0.92
2022-12-04T03:32:45.742Z,0.93
2022-12-04T03:35:33.533Z,0.92
2022-12-04T03:38:06.895Z,0.89
2022-12-04T03:40:52.231Z,0.84
2022-12-04T03:43:31.603Z,0.83
2022-12-04T03:46:07.644Z,0.83
2022-12-04T03:48:41.241Z,0.83
2022-12-04T03:51:32.229Z,0.81
2022-12-04T03:54:29.223Z,0.77
2022-12-04T03:57:05.197Z,0.64
2022-12-04T03:59:40.609Z,0.57
2022-12-04T04:02:10.326Z,0.51
2022-12-04T04:04:41.898Z,0.41
2022-12-04T04:07:18.148Z,0.33
2022-12-04T04:09:50.259Z,0.22
2022-12-04T04:12:22.897Z,0.16
2022-12-04T04:15:16.786Z,0.14
2022-12-04T04:17:49.523Z,0.08
2022-12-04T04:20:39.984Z,0.00
2022-12-04T04:23:29.284Z,-0.05
2022-12-04T04:26:00.107Z,-0.07
2022-12-04T04:28:38.248Z,-0.10
2022-12-04T04:31:35.947Z,-0.11
2022-12-04T04:34:39.792Z,-0.16
2022-12-04T04:37:19.261Z,-0.21
2022-12-04T04:39:58.126Z,-0.26
2022-12-04T04:42:49.782Z,-0.25
2022-12-04T04:45:25.784Z,-0.27
2022-12-04T04:48:20.342Z,-0.28
2022-12-04T04:50:49.636Z,-0.26
2022-12-04T04:53:21.907Z,-0.22
2022-12-04T04:55:50.390Z,-0.15
2022-12-04T04:58:21.106Z,-0.12
2022-12-04T05:01:02.901Z,-0.12
2022-12-04T05:03:32.007Z,-0.15
2022-12-04T05:05:59.813Z,-0.19
2022-12-04T05:08:27.423Z,-0.18
2022-12-04T05:10:55.629Z,-0.16
2022-12-04T05:13:23.548Z,-0.18
2022-12-04T05:16:03.863Z,-0.18
2022-12-04T05:18:36.879Z,-0.18
2022-12-04T05:21:18.908Z,-0.16
2022-12-04T05:23:46.923Z,-0.17
2022-12-04T05:26:14.603Z,-0.21
2022-12-04T05:28:42.359Z,-0.22
2022-12-04T05:31:09.956Z,-0.21
2022-12-04T05:33:37.528Z,-0.26
2022-12-04T05:36:09.382Z,-0.27
2022-12-04T05:38:37.818Z,-0.26
2022-12-04T05:41:06.790Z,-0.27
2022-12-04T05:43:35.479Z,-0.28
2022-12-04T05:46:06.125Z,-0.28
2022-12-04T05:48:35.526Z,-0.30
2022-12-04T05:51:11.156Z,-0.32
2022-12-04T05:53:39.132Z,-0.38
2022-12-04T05:56:08.034Z,-0.41
2022-12-04T05:58:38.078Z,-0.45
2022-12-04T06:01:16.246Z,-0.49
2022-12-04T06:03:44.688Z,-0.53
2022-12-04T06:06:21.476Z,-0.58
2022-12-04T06:08:46.849Z,-0.60
2022-12-04T06:11:30.820Z,-0.59
2022-12-04T06:14:01.339Z,-0.55
2022-12-04T06:16:35.754Z,-0.50
2022-12-04T06:19:07.892Z,-0.46
2022-12-04T06:21:39.423Z,-0.39
2022-12-04T06:24:07.960Z,-0.33
2022-12-04T06:26:35.973Z,-0.28
2022-12-04T06:29:03.815Z,-0.26
2022-12-04T06:31:33.172Z,-0.21
2022-12-04T06:34:00.852Z,-0.18
2022-12-04T06:36:28.504Z,-0.13
2022-12-04T06:38:57.606Z,-0.09
2022-12-04T06:41:27.512Z,-0.06
2022-12-04T06:43:55.863Z,-0.05
2022-12-04T06:46:27.546Z,-0.03
2022-12-04T06:48:57.455Z,-0.03
2022-12-04T06:51:28.998Z,-0.03
2022-12-04T06:53:57.391Z,-0.01
2022-12-04T06:56:28.417Z,-0.01
2022-12-04T06:58:59.656Z,0.03
2022-12-04T07:01:31.035Z,0.04
2022-12-04T07:04:03.105Z,-0.03
2022-12-04T07:06:34.938Z,-0.06
2022-12-04T07:09:10.683Z,-0.06
2022-12-04T07:11:40.612Z,-0.01
2022-12-04T07:14:09.272Z,0.05
2022-12-04T07:16:41.340Z,0.09
2022-12-04T07:19:10.659Z,0.13
2022-12-04T07:21:38.545Z,0.09
2022-12-04T07:24:07.343Z,0.06
2022-12-04T07:26:35.077Z,0.05
2022-12-04T07:29:03.196Z,0.05
2022-12-04T07:31:30.851Z,0.06
2022-12-04T07:33:59.854Z,0.03
2022-12-04T07:36:27.579Z,0.03
2022-12-04T07:38:56.094Z,0.03
2022-12-04T07:41:24.513Z,0.10
2022-12-04T07:43:52.193Z,0.17
2022-12-04T07:46:24.208Z,0.22
2022-12-04T07:48:51.995Z,0.22
2022-12-04T07:51:23.221Z,0.28
2022-12-04T07:53:54.404Z,0.31
2022-12-04T07:56:23.580Z,0.28
2022-12-04T07:58:51.244Z,0.27
2022-12-04T08:01:22.539Z,0.27
2022-12-04T08:03:52.529Z,0.29
2022-12-04T08:06:23.237Z,0.31
2022-12-04T08:08:51.825Z,0.35
2022-12-04T08:11:23.498Z,0.34
2022-12-04T08:13:59.343Z,0.34
2022-12-04T08:16:30.152Z,0.40
2022-12-04T08:18:58.351Z,0.49
2022-12-04T08:21:29.629Z,0.54
2022-12-04T08:23:59.241Z,0.59
2022-12-04T08:26:29.432Z,0.65
2022-12-04T08:28:57.742Z,0.71
2022-12-04T08:31:28.641Z,0.80
2022-12-04T08:33:58.587Z,0.88
2022-12-04T08:36:27.266Z,0.94
2022-12-04T08:38:57.672Z,0.97
2022-12-04T08:41:29.354Z,1.00
2022-12-04T08:43:58.433Z,1.03
2022-12-04T08:46:28.318Z,1.10
2022-12-04T08:48:57.666Z,1.15
2022-12-04T08:51:30.459Z,1.20
2022-12-04T08:54:02.554Z,1.21
2022-12-04T08:56:32.095Z,1.23
2022-12-04T08:59:01.015Z,1.23
2022-12-04T09:01:29.454Z,1.28
2022-12-04T09:03:57.609Z,1.32
2022-12-04T09:06:25.588Z,1.33
2022-12-04T09:08:56.817Z,1.38
2022-12-04T09:11:27.551Z,1.44
2022-12-04T09:13:55.363Z,1.53
2022-12-04T09:16:25.263Z,1.65
2022-12-04T09:18:54.097Z,1.77
2022-12-04T09:21:26.176Z,1.89
2022-12-04T09:23:56.259Z,1.96
2022-12-04T09:26:29.520Z,2.06
2022-12-04T09:29:01.633Z,2.18
2022-12-04T09:31:30.339Z,2.33
2022-12-04T09:34:02.088Z,2.52
2022-12-04T09:36:31.855Z,2.73
2022-12-04T09:38:59.429Z,2.96
2022-12-04T09:41:41.467Z,3.13
2022-12-04T09:44:17.039Z,3.26
2022-12-04T09:47:05.385Z,3.40
2022-12-04T09:49:50.757Z,3.59
2022-12-04T09:52:51.819Z,3.83
2022-12-04T09:55:40.062Z,4.01
2022-12-04T09:58:21.303Z,4.17
2022-12-04T10:00:52.229Z,4.36
2022-12-04T10:03:24.952Z,4.42
2022-12-04T10:06:23.065Z,4.52
2022-12-04T10:09:07.684Z,4.67
2022-12-04T10:11:50.732Z,4.77
2022-12-04T10:14:47.775Z,4.95
2022-12-04T10:17:44.258Z,5.11
2022-12-04T10:20:20.325Z,5.29
2022-12-04T10:23:20.613Z,5.33
2022-12-04T10:25:52.320Z,5.54
2022-12-04T10:28:41.158Z,5.76
2022-12-04T10:31:14.430Z,5.96
2022-12-04T10:34:09.027Z,6.10
2022-12-04T10:36:36.928Z,6.15
2022-12-04T10:39:16.339Z,6.26
2022-12-04T10:42:04.755Z,6.43
2022-12-04T10:44:33.066Z,6.61
2022-12-04T10:47:05.781Z,6.76
2022-12-04T10:49:36.324Z,6.82
2022-12-04T10:52:05.356Z,6.95
2022-12-04T10:54:50.153Z,7.05
2022-12-04T10:57:17.890Z,7.19
2022-12-04T10:59:56.074Z,7.24
2022-12-04T11:02:35.510Z,7.38
2022-12-04T11:05:07.815Z,7.44
2022-12-04T11:07:45.646Z,7.45
2022-12-04T11:10:39.577Z,7.38
2022-12-04T11:13:20.042Z,7.33
2022-12-04T11:15:56.904Z,7.33
2022-12-04T11:18:36.481Z,7.41
2022-12-04T11:21:28.037Z,7.52
2022-12-04T11:23:56.739Z,7.62
2022-12-04T11:26:34.934Z,7.68
2022-12-04T11:29:04.802Z,7.76
2022-12-04T11:31:33.704Z,7.88
2022-12-04T11:34:05.533Z,7.96
2022-12-04T11:36:40.064Z,7.93
2022-12-04T11:39:16.308Z,7.85
2022-12-04T11:41:44.420Z,7.83
2022-12-04T11:44:29.762Z,7.86
2022-12-04T11:47:01.928Z,7.88
2022-12-04T11:49:32.553Z,7.93
2022-12-04T11:52:29.764Z,8.00
2022-12-04T11:55:25.347Z,8.08
2022-12-04T11:58:18.466Z,8.10
2022-12-04T12:01:06.084Z,8.17
2022-12-04T12:03:51.071Z,8.29
2022-12-04T12:06:39.258Z,8.38
2022-12-04T12:09:34.646Z,8.33
2022-12-04T12:12:36.329Z,8.31
2022-12-04T12:16:03.679Z,8.32
2022-12-04T12:18:45.242Z,8.34
2022-12-04T12:21:47.318Z,8.32
2022-12-04T12:24:31.788Z,8.35
2022-12-04T12:27:28.031Z,8.34
2022-12-04T12:30:08.073Z,8.36
2022-12-04T12:33:05.854Z,8.38
2022-12-04T12:35:47.854Z,8.38
2022-12-04T12:38:23.997Z,8.37
2022-12-04T12:41:00.070Z,8.30
2022-12-04T12:43:32.020Z,8.22
2022-12-04T12:46:17.950Z,8.15
2022-12-04T12:49:00.020Z,8.06
2022-12-04T12:51:37.852Z,7.99
2022-12-04T12:54:32.161Z,7.91
2022-12-04T12:57:08.134Z,7.81
2022-12-04T12:59:42.112Z,7.70
2022-12-04T13:02:24.464Z,7.60
2022-12-04T13:04:57.238Z,7.51
2022-12-04T13:07:52.733Z,7.40
2022-12-04T13:10:29.353Z,7.31
2022-12-04T13:13:02.527Z,7.14
2022-12-04T13:15:41.285Z,7.03
2022-12-04T13:18:13.321Z,6.93
2022-12-04T13:20:46.673Z,6.81
2022-12-04T13:23:48.607Z,6.68
2022-12-04T13:26:57.199Z,6.57
2022-12-04T13:30:14.246Z,6.44
2022-12-04T13:33:13.685Z,6.31
2022-12-04T13:36:24.728Z,6.20
2022-12-04T13:39:31.555Z,6.12
2022-12-04T13:42:03.522Z,6.04
2022-12-04T13:44:34.196Z,5.94
2022-12-04T13:47:09.546Z,5.87
2022-12-04T13:49:44.638Z,5.78
2022-12-04T13:52:23.973Z,5.69
2022-12-04T13:55:00.438Z,5.60
2022-12-04T13:57:29.823Z,5.52
2022-12-04T14:00:10.001Z,5.41
2022-12-04T14:02:44.716Z,5.34
2022-12-04T14:05:14.135Z,5.25
2022-12-04T14:08:07.536Z,5.18
2022-12-04T14:10:38.682Z,5.10
2022-12-04T14:13:24.392Z,5.00
2022-12-04T14:16:10.331Z,4.93
2022-12-04T14:18:48.009Z,4.83
2022-12-04T14:21:21.993Z,4.72
2022-12-04T14:23:53.863Z,4.64
2022-12-04T14:27:09.644Z,4.55
2022-12-04T14:29:28.063Z,4.48
2022-12-04T14:32:01.432Z,4.41
2022-12-04T14:34:37.224Z,4.31
2022-12-04T14:37:13.138Z,4.24
2022-12-04T14:39:51.749Z,4.18
2022-12-04T14:42:35.204Z,4.11
2022-12-04T14:45:29.141Z,4.04
2022-12-04T14:48:20.311Z,3.97
2022-12-04T14:50:58.714Z,3.92
2022-12-04T14:53:55.437Z,3.88
2022-12-04T14:56:45.446Z,3.80
2022-12-04T14:59:23.131Z,3.75
2022-12-04T15:01:58.146Z,3.69
2022-12-04T15:04:33.616Z,3.64
2022-12-04T15:07:10.200Z,3.58
2022-12-04T15:10:13.804Z,3.55
2022-12-04T15:12:54.974Z,3.49
2022-12-04T15:15:48.056Z,3.43
2022-12-04T15:18:20.522Z,3.38
2022-12-04T15:20:56.305Z,3.33
2022-12-04T15:23:44.896Z,3.32
2022-12-04T15:26:20.238Z,3.29
2022-12-04T15:29:06.156Z,3.25
2022-12-04T15:31:40.228Z,3.22
2022-12-04T15:34:14.057Z,3.18
2022-12-04T15:37:01.829Z,3.17
2022-12-04T15:39:34.032Z,3.14
2022-12-04T15:42:18.655Z,3.09
2022-12-04T15:45:03.863Z,3.06
2022-12-04T15:47:47.218Z,3.04
2022-12-04T15:50:21.592Z,3.00
2022-12-04T15:53:03.329Z,2.96
2022-12-04T15:55:40.835Z,2.95
2022-12-04T15:58:32.960Z,2.89
2022-12-04T16:01:15.510Z,2.86
2022-12-04T16:03:52.301Z,2.83
2022-12-04T16:06:28.614Z,2.80
2022-12-04T16:09:20.831Z,2.79
2022-12-04T16:11:59.660Z,2.77
2022-12-04T16:14:36.146Z,2.62
2022-12-04T16:17:14.076Z,2.71
2022-12-04T16:19:42.964Z,2.70
2022-12-04T16:22:21.157Z,2.67
2022-12-04T16:24:52.109Z,2.66
2022-12-04T16:27:24.463Z,2.63
2022-12-04T16:29:55.683Z,2.61
2022-12-04T16:32:31.611Z,2.60
2022-12-04T16:35:01.285Z,2.59
2022-12-04T16:37:31.670Z,2.57
2022-12-04T16:39:59.608Z,2.55
2022-12-04T16:42:31.982Z,2.55
2022-12-04T16:45:00.426Z,2.55
2022-12-04T16:47:28.541Z,2.54
2022-12-04T16:49:58.444Z,2.52
2022-12-04T16:52:26.675Z,2.52
2022-12-04T16:54:56.846Z,2.51
2022-12-04T16:57:24.671Z,2.50
2022-12-04T16:59:55.620Z,2.49
2022-12-04T17:02:33.793Z,2.48
2022-12-04T17:05:05.127Z,2.46
2022-12-04T17:07:35.619Z,2.43
2022-12-04T17:10:06.054Z,2.39
2022-12-04T17:12:40.021Z,2.38
2022-12-04T17:15:12.584Z,2.36
2022-12-04T17:17:41.352Z,2.36
2022-12-04T17:20:16.256Z,2.35
2022-12-04T17:22:43.997Z,2.35
2022-12-04T17:25:13.148Z,2.34
2022-12-04T17:27:41.550Z,2.33
2022-12-04T17:30:11.470Z,2.32
2022-12-04T17:32:39.553Z,2.32
2022-12-04T17:35:09.325Z,2.30
2022-12-04T17:37:38.160Z,2.27
2022-12-04T17:40:10.073Z,2.25
2022-12-04T17:42:37.758Z,2.23
2022-12-04T17:45:07.972Z,2.22
2022-12-04T17:47:36.776Z,2.20
2022-12-04T17:50:07.354Z,2.18
2022-12-04T17:52:38.101Z,2.18
2022-12-04T17:55:08.976Z,2.17
2022-12-04T17:57:36.550Z,2.19
2022-12-04T18:00:07.353Z,2.17
2022-12-04T18:02:37.619Z,2.19
2022-12-04T18:05:06.016Z,2.22
2022-12-04T18:07:34.180Z,2.22
2022-12-04T18:10:02.176Z,2.21
2022-12-04T18:12:30.893Z,2.20
2022-12-04T18:14:58.764Z,2.19
2022-12-04T18:17:26.238Z,2.19
2022-12-04T18:19:56.926Z,2.19
2022-12-04T18:22:24.295Z,2.19
2022-12-04T18:24:51.951Z,2.19
2022-12-04T18:27:19.370Z,2.19
2022-12-04T18:29:47.291Z,2.18
2022-12-04T18:32:15.127Z,2.18
2022-12-04T18:34:43.712Z,2.20
2022-12-04T18:37:11.623Z,2.21
2022-12-04T18:39:39.244Z,2.23
2022-12-04T18:42:08.462Z,2.25
2022-12-04T18:44:36.715Z,2.25
2022-12-04T18:47:04.776Z,2.27
2022-12-04T18:49:33.547Z,2.26
2022-12-04T18:52:01.342Z,2.28
2022-12-04T18:54:29.499Z,2.27
2022-12-04T18:56:57.798Z,2.28
2022-12-04T18:59:29.569Z,2.29
2022-12-04T19:01:58.173Z,2.29
2022-12-04T19:04:27.783Z,2.30
2022-12-04T19:06:56.334Z,2.31
2022-12-04T19:10:02.021Z,2.29
2022-12-04T19:11:57.351Z,2.29
2022-12-04T19:14:25.488Z,2.28
2022-12-04T19:16:55.174Z,2.28
2022-12-04T19:19:27.464Z,2.27
2022-12-04T19:21:53.310Z,2.26
2022-12-04T19:24:21.559Z,2.24
2022-12-04T19:26:50.540Z,2.24
2022-12-04T19:29:18.717Z,2.24
2022-12-04T19:31:46.996Z,2.25
2022-12-04T19:34:15.258Z,2.30
2022-12-04T19:36:46.867Z,2.31
2022-12-04T19:39:15.576Z,2.32
2022-12-04T19:41:43.256Z,2.32
2022-12-04T19:44:40.181Z,2.32
2022-12-04T19:46:42.720Z,2.32
2022-12-04T19:49:12.158Z,2.32
2022-12-04T19:51:43.716Z,2.31
2022-12-04T19:54:13.144Z,2.31
2022-12-04T19:56:42.448Z,2.30
2022-12-04T19:59:10.610Z,2.31
2022-12-04T20:01:38.958Z,2.33
2022-12-04T20:04:12.638Z,2.32
2022-12-04T20:06:45.441Z,2.31
2022-12-04T20:09:20.872Z,2.32
2022-12-04T20:11:48.909Z,2.33
2022-12-04T20:14:17.101Z,2.31
2022-12-04T20:16:46.518Z,2.30
2022-12-04T20:19:17.656Z,2.30
2022-12-04T20:21:46.361Z,2.30
2022-12-04T20:24:16.116Z,2.29
2022-12-04T20:26:45.956Z,2.31
2022-12-04T20:29:18.527Z,2.31
2022-12-04T20:31:48.124Z,2.31
2022-12-04T20:34:23.040Z,2.33
2022-12-04T20:36:50.931Z,2.32
2022-12-04T20:39:20.369Z,2.32
2022-12-04T20:41:48.507Z,2.31
2022-12-04T20:44:29.058Z,2.29
2022-12-04T20:46:58.399Z,2.26
2022-12-04T20:49:26.888Z,2.21
2022-12-04T20:51:54.903Z,2.17
2022-12-04T20:54:23.254Z,2.11
2022-12-04T20:56:53.229Z,2.08
2022-12-04T20:59:23.301Z,2.06
2022-12-04T21:01:52.260Z,2.04
2022-12-04T21:04:20.779Z,1.97
2022-12-04T21:06:50.202Z,1.94
2022-12-04T21:09:22.852Z,1.86
2022-12-04T21:11:54.386Z,1.77
2022-12-04T21:14:47.293Z,1.70
2022-12-04T21:17:18.934Z,1.63
2022-12-04T21:19:49.938Z,1.54
2022-12-04T21:22:19.106Z,1.52
2022-12-04T21:24:47.565Z,1.51
2022-12-04T21:27:20.767Z,1.49
2022-12-04T21:29:44.817Z,1.48
2022-12-04T21:32:12.370Z,1.48
2022-12-04T21:34:46.482Z,1.49
2022-12-04T21:37:14.116Z,1.49
2022-12-04T21:39:43.193Z,1.51
2022-12-04T21:42:29.432Z,1.54
2022-12-04T21:45:00.408Z,1.57
2022-12-04T21:47:28.460Z,1.60
2022-12-04T21:49:56.782Z,1.64
2022-12-04T21:52:25.091Z,1.67
2022-12-04T21:54:54.374Z,1.71
2022-12-04T21:57:22.477Z,1.73
2022-12-04T21:59:53.155Z,1.75
2022-12-04T22:02:21.368Z,1.79
2022-12-04T22:04:49.619Z,1.81
2022-12-04T22:07:17.143Z,1.83
2022-12-04T22:09:46.547Z,1.85
2022-12-04T22:12:41.012Z,1.87
2022-12-04T22:14:43.721Z,1.90
2022-12-04T22:17:11.279Z,1.89
2022-12-04T22:19:39.018Z,1.89
2022-12-04T22:22:06.563Z,1.88
2022-12-04T22:24:34.023Z,1.87
2022-12-04T22:27:01.593Z,1.89
2022-12-04T22:31:59.139Z,1.88
2022-12-04T22:34:26.947Z,1.84
2022-12-04T22:36:54.377Z,1.79
2022-12-04T22:39:22.111Z,1.80
2022-12-04T22:41:49.765Z,1.78
2022-12-04T22:44:17.269Z,1.73
2022-12-04T22:46:45.204Z,1.70
2022-12-04T22:49:12.759Z,1.68
2022-12-04T22:51:40.517Z,1.71
2022-12-04T22:54:13.464Z,1.74
2022-12-04T22:56:43.191Z,1.77
2022-12-04T22:59:11.191Z,1.78
2022-12-04T23:01:39.040Z,1.79
2022-12-04T23:04:06.496Z,1.80
2022-12-04T23:06:34.446Z,1.80
2022-12-04T23:09:06.823Z,1.82
2022-12-04T23:11:35.850Z,1.83
2022-12-04T23:14:07.265Z,1.85
2022-12-04T23:16:38.118Z,1.84
2022-12-04T23:19:08.783Z,1.84
2022-12-04T23:21:36.552Z,1.85
2022-12-04T23:24:05.009Z,1.85
2022-12-04T23:26:36.691Z,1.85
2022-12-04T23:29:23.468Z,1.87
2022-12-04T23:31:35.678Z,1.87
2022-12-04T23:34:05.594Z,1.87
2022-12-04T23:36:34.248Z,1.85
2022-12-04T23:39:01.987Z,1.82
2022-12-04T23:41:31.318Z,1.81
2022-12-04T23:43:59.145Z,1.81
2022-12-04T23:46:31.864Z,1.80
2022-12-04T23:49:00.640Z,1.79
2022-12-04T23:51:28.871Z,1.73
2022-12-04T23:53:56.907Z,1.71
2022-12-04T23:56:27.250Z,1.66
2022-12-04T23:58:57.195Z,1.61
